Terminal Aerodrome Forecast
Issued by NWS Huntsville, AL

Current Version | Previous Version | Text Only | Print | Product List | Glossary On
Versions: 1 2 3 4 5 6 7 8 9 10 11 12 13 14 15 16 17 18 19 20 21 22 23 24 25 26
000
FTUS44 KHUN 211137
TAFHSV
TAF
KHSV 211137Z 2112/2212 00000KT P6SM SKC
     FM211500 26009G18KT P6SM SCT040
     FM211900 27008G17KT P6SM VCTS OVC040CB
     FM220100 31010KT P6SM BKN040
     FM220700 36012KT P6SM SCT050=

USA.gov is the U.S. government's official web portal to all federal, state and local government web resources and services.